Strona główna
METAR-TAF:

METAR-TAF

Lotnisko :

Wapakoneta, Ohio, Stany Zjednoczone

Szerokość geograficzna: 40-29-37N, Długość geograficzna: 084-17-53W, wysokość: 278 m

Aktualna obserwacja pogody

Raport powstał 12 minut temu, godzina 20:16 UTC
Wiatr 4 kt od południowo-południowy wschód
Temperatura 3°C
Wilgotność 56%
Ciśnienie 1028 hPa
Widzialność: 11.3 km
bezchmurnie

METAR: KAXV 072016Z AUTO 16004KT 7SM CLR 03/M05 A3036 RMK AO2

czas: 15:28 (20:28 UTC)


TAF: brakujący

Obserwacja i prognoza pogody dla ponad 4000 lotnisk (raport METAR i TAF).

Dostępne stacje oznaczono żółtymi i czerwonymi punktami na mapie.

Najedź kursorem aby zobaczyć nazwę stacji.

Kliknij aby zobaczyć obserwacje i prognozy pogody.

Aby zmienić mapę: kliknij na zielony przycisk z czarnym krzyżykiem, aby powiększyć; na zielony przycisk z myślnikiem, aby pomniejszyć; na zielone strzałki, aby przejść do map sąsiednich.


METAR-TAF: